Poplarville, MS

5:56 AM CST on January 27, 2015 (GMT -0600)
Pearl River County EOC | Change Station
CLOSE
Current Station
Personal Weather Station
Location: Poplarville, MS
Elevation: 305 ft
Nearby Weather Stations

Elev 305 ft 30.83 °N, 89.54 °W | Updated 51 minutes ago

Clear
Clear
74.9 °F
Feels Like 77 °F
N
4.6
Wind Variable Wind from WSW
Gusts 4.6 mph

Today
High -- | Low -- °F
--% Chance of Precip.
Yesterday
High -- | Low -- °F
Precip. -- in
6:52 AM 5:29 PM
First Quarter, 53% visible
Pressure 30.03 in
Visibility 10.0 miles
Clouds Clear
Heat Index 77 °F
Dew Point 38 °F
Humidity 26%
Rainfall 0.00 in
Snow Depth Not available.
UV 0 out of 12
Pollen 7.40 out of 12
Air Quality Not available.
Flu Activity Not available.
METAR KHBG 271053Z AUTO 27005KT 10SM CLR 08/02 A3003 RMK AO2 SLP167 T00830017

More Conditions Fewer Conditions

Pressure 30.03 in
Visibility 10.0 miles
Clouds Clear
Heat Index 77 °F
Dew Point 38 °F
Humidity 26%
Rainfall 0.00 in
Snow Depth Not available.
UV 0 out of 12
Pollen 7.40 out of 12
Air Quality Not available.
Flu Activity Not available.
METAR KHBG 271053Z AUTO 27005KT 10SM CLR 08/02 A3003 RMK AO2 SLP167 T00830017

More Conditions Fewer Conditions

10-Day Weather Forecast

Almanac

Astronomy

Jan. 27, 2015 Rise Set
Actual Time
Civil Twilight
Nautical Twilight
Astronomical Twilight
Moon
Length of Visible Light
Length of Day
Tomorrow will be .
, % of the Moon is Illuminated

Today's Extremes

State Highs State Lows

Community

WunderPhotos

Upload Photos

1,790,566 photos uploaded!

WunderBlogs® & News

Nearby

Air Quality

  Air Quality AQ Index Pollutant
Not available.

Snow Depth

Station Depth Elevation

Earthquake Activity

City Distance Mag. Time & Date
Minimum magnitude displayed is 2.5.

Coastal Water Temperatures

Place Temperature

Nearby Weather Stations